sensor_id;sensor_type;location;lat;lon;timestamp;P1;durP1;ratioP1;P2;durP2;ratioP2
70071;SDS011;57434;42.794;23.302;2023-05-07T00:00:13;17.90;;;8.30;;
70071;SDS011;57434;42.794;23.302;2023-05-07T00:01:15;28.58;;;11.55;;
70071;SDS011;57434;42.794;23.302;2023-05-07T00:02:20;40.45;;;13.65;;
70071;SDS011;57434;42.794;23.302;2023-05-07T00:03:22;35.95;;;14.18;;
70071;SDS011;57434;42.794;23.302;2023-05-07T00:04:24;12.82;;;6.85;;
70071;SDS011;57434;42.794;23.302;2023-05-07T00:05:26;12.45;;;6.25;;
70071;SDS011;57434;42.794;23.302;2023-05-07T00:06:28;11.90;;;6.07;;
70071;SDS011;57434;42.794;23.302;2023-05-07T00:07:30;29.13;;;10.63;;
70071;SDS011;57434;42.794;23.302;2023-05-07T00:08:32;18.25;;;7.82;;
70071;SDS011;57434;42.794;23.302;2023-05-07T00:09:33;17.15;;;7.72;;
70071;SDS011;57434;42.794;23.302;2023-05-07T00:10:35;21.05;;;10.00;;
70071;SDS011;57434;42.794;23.302;2023-05-07T00:11:37;11.80;;;6.30;;
70071;SDS011;57434;42.794;23.302;2023-05-07T00:12:39;11.27;;;5.72;;
70071;SDS011;57434;42.794;23.302;2023-05-07T00:13:42;14.65;;;7.35;;
70071;SDS011;57434;42.794;23.302;2023-05-07T00:14:43;13.27;;;7.07;;
70071;SDS011;57434;42.794;23.302;2023-05-07T00:15:45;12.13;;;6.40;;
70071;SDS011;57434;42.794;23.302;2023-05-07T00:16:47;15.15;;;6.50;;
70071;SDS011;57434;42.794;23.302;2023-05-07T00:17:49;9.97;;;5.37;;
70071;SDS011;57434;42.794;23.302;2023-05-07T00:18:51;13.45;;;7.07;;
70071;SDS011;57434;42.794;23.302;2023-05-07T00:19:53;15.50;;;7.05;;
70071;SDS011;57434;42.794;23.302;2023-05-07T00:20:54;16.13;;;7.30;;
70071;SDS011;57434;42.794;23.302;2023-05-07T00:21:56;12.73;;;6.65;;
70071;SDS011;57434;42.794;23.302;2023-05-07T00:22:58;14.77;;;6.50;;
70071;SDS011;57434;42.794;23.302;2023-05-07T00:24:00;16.58;;;7.80;;
70071;SDS011;57434;42.794;23.302;2023-05-07T00:25:02;12.98;;;6.75;;
70071;SDS011;57434;42.794;23.302;2023-05-07T00:26:04;12.88;;;5.97;;
70071;SDS011;57434;42.794;23.302;2023-05-07T00:27:06;10.20;;;5.93;;
70071;SDS011;57434;42.794;23.302;2023-05-07T00:28:08;12.30;;;6.13;;
70071;SDS011;57434;42.794;23.302;2023-05-07T00:29:10;10.55;;;5.57;;
70071;SDS011;57434;42.794;23.302;2023-05-07T00:30:12;10.25;;;5.97;;
70071;SDS011;57434;42.794;23.302;2023-05-07T00:31:14;14.68;;;6.70;;
70071;SDS011;57434;42.794;23.302;2023-05-07T00:32:16;14.68;;;6.30;;
70071;SDS011;57434;42.794;23.302;2023-05-07T00:33:17;11.43;;;5.93;;
70071;SDS011;57434;42.794;23.302;2023-05-07T00:34:19;12.13;;;5.78;;
70071;SDS011;57434;42.794;23.302;2023-05-07T00:35:21;13.85;;;5.68;;
70071;SDS011;57434;42.794;23.302;2023-05-07T00:36:23;12.75;;;5.57;;
70071;SDS011;57434;42.794;23.302;2023-05-07T00:37:24;12.80;;;5.32;;
70071;SDS011;57434;42.794;23.302;2023-05-07T00:38:26;10.17;;;5.63;;
70071;SDS011;57434;42.794;23.302;2023-05-07T00:39:28;11.82;;;5.65;;
70071;SDS011;57434;42.794;23.302;2023-05-07T00:40:29;9.68;;;5.60;;
70071;SDS011;57434;42.794;23.302;2023-05-07T00:41:31;13.20;;;5.32;;
70071;SDS011;57434;42.794;23.302;2023-05-07T00:42:33;12.05;;;6.32;;
70071;SDS011;57434;42.794;23.302;2023-05-07T00:43:35;9.40;;;5.85;;
70071;SDS011;57434;42.794;23.302;2023-05-07T00:44:36;10.88;;;5.55;;
70071;SDS011;57434;42.794;23.302;2023-05-07T00:45:38;13.30;;;6.22;;
70071;SDS011;57434;42.794;23.302;2023-05-07T00:46:40;12.73;;;5.47;;
70071;SDS011;57434;42.794;23.302;2023-05-07T00:47:42;11.80;;;6.10;;
70071;SDS011;57434;42.794;23.302;2023-05-07T00:48:44;10.77;;;5.37;;
70071;SDS011;57434;42.794;23.302;2023-05-07T00:49:46;12.38;;;5.88;;
70071;SDS011;57434;42.794;23.302;2023-05-07T00:50:48;10.30;;;5.72;;
70071;SDS011;57434;42.794;23.302;2023-05-07T00:51:49;13.48;;;5.95;;
70071;SDS011;57434;42.794;23.302;2023-05-07T00:52:51;15.15;;;5.93;;
70071;SDS011;57434;42.794;23.302;2023-05-07T00:53:54;11.70;;;6.00;;
70071;SDS011;57434;42.794;23.302;2023-05-07T00:54:55;14.23;;;5.88;;
70071;SDS011;57434;42.794;23.302;2023-05-07T00:55:57;14.45;;;5.63;;
70071;SDS011;57434;42.794;23.302;2023-05-07T00:56:59;10.48;;;5.70;;
70071;SDS011;57434;42.794;23.302;2023-05-07T00:58:03;9.38;;;5.80;;
70071;SDS011;57434;42.794;23.302;2023-05-07T00:59:05;10.60;;;5.33;;
70071;SDS011;57434;42.794;23.302;2023-05-07T01:00:08;13.05;;;5.53;;
70071;SDS011;57434;42.794;23.302;2023-05-07T01:01:11;11.32;;;5.75;;
70071;SDS011;57434;42.794;23.302;2023-05-07T01:02:13;10.52;;;5.25;;
70071;SDS011;57434;42.794;23.302;2023-05-07T01:03:14;14.77;;;6.03;;
70071;SDS011;57434;42.794;23.302;2023-05-07T01:04:16;10.18;;;4.68;;
70071;SDS011;57434;42.794;23.302;2023-05-07T01:05:19;11.38;;;5.53;;
70071;SDS011;57434;42.794;23.302;2023-05-07T01:06:24;11.23;;;5.13;;
70071;SDS011;57434;42.794;23.302;2023-05-07T01:07:28;11.55;;;5.03;;
70071;SDS011;57434;42.794;23.302;2023-05-07T01:08:31;9.32;;;5.25;;
70071;SDS011;57434;42.794;23.302;2023-05-07T01:09:33;9.07;;;4.70;;
70071;SDS011;57434;42.794;23.302;2023-05-07T01:10:36;10.48;;;4.82;;
70071;SDS011;57434;42.794;23.302;2023-05-07T01:11:38;10.57;;;5.22;;
70071;SDS011;57434;42.794;23.302;2023-05-07T01:12:41;10.50;;;5.75;;
70071;SDS011;57434;42.794;23.302;2023-05-07T01:13:44;9.98;;;4.97;;
70071;SDS011;57434;42.794;23.302;2023-05-07T01:14:47;10.20;;;4.78;;
70071;SDS011;57434;42.794;23.302;2023-05-07T01:15:49;10.25;;;5.38;;
70071;SDS011;57434;42.794;23.302;2023-05-07T01:16:51;9.57;;;4.55;;
70071;SDS011;57434;42.794;23.302;2023-05-07T01:17:54;15.32;;;5.40;;
70071;SDS011;57434;42.794;23.302;2023-05-07T01:18:57;9.60;;;4.97;;
70071;SDS011;57434;42.794;23.302;2023-05-07T01:19:59;11.27;;;5.27;;
70071;SDS011;57434;42.794;23.302;2023-05-07T01:21:00;12.10;;;5.43;;
70071;SDS011;57434;42.794;23.302;2023-05-07T01:22:08;11.35;;;4.95;;
70071;SDS011;57434;42.794;23.302;2023-05-07T01:23:11;9.82;;;4.97;;
70071;SDS011;57434;42.794;23.302;2023-05-07T01:24:13;11.00;;;5.63;;
70071;SDS011;57434;42.794;23.302;2023-05-07T01:25:16;9.98;;;5.15;;
70071;SDS011;57434;42.794;23.302;2023-05-07T01:26:19;11.45;;;5.32;;
70071;SDS011;57434;42.794;23.302;2023-05-07T01:27:21;11.15;;;5.22;;
70071;SDS011;57434;42.794;23.302;2023-05-07T01:28:23;13.35;;;5.60;;
70071;SDS011;57434;42.794;23.302;2023-05-07T01:29:25;10.25;;;5.32;;
70071;SDS011;57434;42.794;23.302;2023-05-07T01:30:27;10.60;;;5.23;;
70071;SDS011;57434;42.794;23.302;2023-05-07T01:31:29;10.30;;;5.22;;
70071;SDS011;57434;42.794;23.302;2023-05-07T01:32:40;11.43;;;5.10;;
70071;SDS011;57434;42.794;23.302;2023-05-07T01:33:46;11.25;;;5.15;;
70071;SDS011;57434;42.794;23.302;2023-05-07T01:34:50;10.93;;;5.03;;
70071;SDS011;57434;42.794;23.302;2023-05-07T01:35:53;15.57;;;5.43;;
70071;SDS011;57434;42.794;23.302;2023-05-07T01:36:55;9.85;;;5.40;;
70071;SDS011;57434;42.794;23.302;2023-05-07T01:37:58;9.82;;;5.07;;
70071;SDS011;57434;42.794;23.302;2023-05-07T01:39:00;12.15;;;5.07;;
70071;SDS011;57434;42.794;23.302;2023-05-07T01:40:03;10.40;;;5.20;;
70071;SDS011;57434;42.794;23.302;2023-05-07T01:41:06;10.23;;;6.03;;
70071;SDS011;57434;42.794;23.302;2023-05-07T01:42:08;10.40;;;5.88;;
70071;SDS011;57434;42.794;23.302;2023-05-07T01:43:10;10.48;;;5.22;;
70071;SDS011;57434;42.794;23.302;2023-05-07T01:44:12;11.50;;;5.15;;
70071;SDS011;57434;42.794;23.302;2023-05-07T01:45:14;10.88;;;6.07;;
70071;SDS011;57434;42.794;23.302;2023-05-07T01:46:16;12.02;;;6.43;;
70071;SDS011;57434;42.794;23.302;2023-05-07T01:47:28;12.18;;;5.95;;
70071;SDS011;57434;42.794;23.302;2023-05-07T01:48:31;11.32;;;6.32;;
70071;SDS011;57434;42.794;23.302;2023-05-07T01:49:34;12.70;;;6.07;;
70071;SDS011;57434;42.794;23.302;2023-05-07T01:50:36;14.07;;;6.85;;
70071;SDS011;57434;42.794;23.302;2023-05-07T01:51:38;10.57;;;5.77;;
70071;SDS011;57434;42.794;23.302;2023-05-07T01:52:41;13.93;;;6.75;;
70071;SDS011;57434;42.794;23.302;2023-05-07T01:53:43;12.95;;;6.75;;
70071;SDS011;57434;42.794;23.302;2023-05-07T01:54:44;14.07;;;6.75;;
70071;SDS011;57434;42.794;23.302;2023-05-07T01:55:46;12.50;;;6.63;;
70071;SDS011;57434;42.794;23.302;2023-05-07T01:56:48;13.48;;;6.45;;
70071;SDS011;57434;42.794;23.302;2023-05-07T01:57:50;13.73;;;6.43;;
70071;SDS011;57434;42.794;23.302;2023-05-07T01:58:52;11.05;;;6.70;;
70071;SDS011;57434;42.794;23.302;2023-05-07T01:59:54;11.65;;;6.38;;
70071;SDS011;57434;42.794;23.302;2023-05-07T02:00:56;17.50;;;6.57;;
70071;SDS011;57434;42.794;23.302;2023-05-07T02:01:57;13.47;;;7.00;;
70071;SDS011;57434;42.794;23.302;2023-05-07T02:02:59;10.48;;;6.20;;
70071;SDS011;57434;42.794;23.302;2023-05-07T02:04:01;16.00;;;7.10;;
70071;SDS011;57434;42.794;23.302;2023-05-07T02:05:04;11.13;;;6.40;;
70071;SDS011;57434;42.794;23.302;2023-05-07T02:06:06;12.38;;;6.63;;
70071;SDS011;57434;42.794;23.302;2023-05-07T02:07:08;11.20;;;6.25;;
70071;SDS011;57434;42.794;23.302;2023-05-07T02:08:09;11.50;;;6.35;;
70071;SDS011;57434;42.794;23.302;2023-05-07T02:09:11;12.40;;;6.88;;
70071;SDS011;57434;42.794;23.302;2023-05-07T02:10:14;12.60;;;6.38;;
70071;SDS011;57434;42.794;23.302;2023-05-07T02:11:16;11.70;;;6.82;;
70071;SDS011;57434;42.794;23.302;2023-05-07T02:12:18;14.77;;;7.60;;
70071;SDS011;57434;42.794;23.302;2023-05-07T02:13:20;13.00;;;7.40;;
70071;SDS011;57434;42.794;23.302;2023-05-07T02:14:22;13.18;;;7.15;;
70071;SDS011;57434;42.794;23.302;2023-05-07T02:15:23;12.13;;;7.13;;
70071;SDS011;57434;42.794;23.302;2023-05-07T02:16:25;12.48;;;6.45;;
70071;SDS011;57434;42.794;23.302;2023-05-07T02:17:27;12.50;;;6.57;;
70071;SDS011;57434;42.794;23.302;2023-05-07T02:18:29;14.20;;;7.00;;
70071;SDS011;57434;42.794;23.302;2023-05-07T02:19:31;12.13;;;6.22;;
70071;SDS011;57434;42.794;23.302;2023-05-07T02:20:33;14.85;;;7.38;;
70071;SDS011;57434;42.794;23.302;2023-05-07T02:21:35;10.90;;;6.93;;
70071;SDS011;57434;42.794;23.302;2023-05-07T02:22:36;12.90;;;6.77;;
70071;SDS011;57434;42.794;23.302;2023-05-07T02:23:38;15.10;;;6.50;;
70071;SDS011;57434;42.794;23.302;2023-05-07T02:24:40;11.50;;;6.97;;
70071;SDS011;57434;42.794;23.302;2023-05-07T02:25:42;13.88;;;7.03;;
70071;SDS011;57434;42.794;23.302;2023-05-07T02:26:43;12.48;;;7.03;;
70071;SDS011;57434;42.794;23.302;2023-05-07T02:27:45;12.77;;;6.80;;
70071;SDS011;57434;42.794;23.302;2023-05-07T02:28:47;11.73;;;6.03;;
70071;SDS011;57434;42.794;23.302;2023-05-07T02:29:49;11.32;;;6.55;;
70071;SDS011;57434;42.794;23.302;2023-05-07T02:30:51;12.63;;;5.85;;
70071;SDS011;57434;42.794;23.302;2023-05-07T02:31:52;11.55;;;6.00;;
70071;SDS011;57434;42.794;23.302;2023-05-07T02:32:54;11.07;;;5.93;;
70071;SDS011;57434;42.794;23.302;2023-05-07T02:33:56;16.10;;;5.95;;
70071;SDS011;57434;42.794;23.302;2023-05-07T02:34:58;12.02;;;6.15;;
70071;SDS011;57434;42.794;23.302;2023-05-07T02:36:06;10.57;;;6.13;;
70071;SDS011;57434;42.794;23.302;2023-05-07T02:37:09;13.00;;;6.13;;
70071;SDS011;57434;42.794;23.302;2023-05-07T02:38:11;12.25;;;5.90;;
70071;SDS011;57434;42.794;23.302;2023-05-07T02:39:13;10.25;;;5.55;;
70071;SDS011;57434;42.794;23.302;2023-05-07T02:40:15;11.38;;;5.20;;
70071;SDS011;57434;42.794;23.302;2023-05-07T02:41:17;10.45;;;5.18;;
70071;SDS011;57434;42.794;23.302;2023-05-07T02:42:19;10.73;;;5.13;;
70071;SDS011;57434;42.794;23.302;2023-05-07T02:43:21;11.13;;;5.77;;
70071;SDS011;57434;42.794;23.302;2023-05-07T02:44:22;9.05;;;5.00;;
70071;SDS011;57434;42.794;23.302;2023-05-07T02:45:24;9.13;;;5.10;;
70071;SDS011;57434;42.794;23.302;2023-05-07T02:46:26;10.30;;;5.10;;
70071;SDS011;57434;42.794;23.302;2023-05-07T02:47:28;9.90;;;4.88;;
70071;SDS011;57434;42.794;23.302;2023-05-07T02:48:30;11.25;;;5.60;;
70071;SDS011;57434;42.794;23.302;2023-05-07T02:49:33;11.13;;;4.97;;
70071;SDS011;57434;42.794;23.302;2023-05-07T02:50:34;9.20;;;5.15;;
70071;SDS011;57434;42.794;23.302;2023-05-07T02:51:36;9.55;;;4.45;;
70071;SDS011;57434;42.794;23.302;2023-05-07T02:52:38;9.98;;;5.43;;
70071;SDS011;57434;42.794;23.302;2023-05-07T02:53:40;10.93;;;5.03;;
70071;SDS011;57434;42.794;23.302;2023-05-07T02:54:42;8.35;;;4.80;;
70071;SDS011;57434;42.794;23.302;2023-05-07T02:55:43;11.18;;;4.40;;
70071;SDS011;57434;42.794;23.302;2023-05-07T02:56:45;8.80;;;4.85;;
70071;SDS011;57434;42.794;23.302;2023-05-07T02:57:47;8.00;;;4.47;;
70071;SDS011;57434;42.794;23.302;2023-05-07T02:58:49;9.52;;;4.70;;
70071;SDS011;57434;42.794;23.302;2023-05-07T02:59:51;8.27;;;4.65;;
70071;SDS011;57434;42.794;23.302;2023-05-07T03:00:53;9.57;;;4.57;;
70071;SDS011;57434;42.794;23.302;2023-05-07T03:01:55;11.35;;;4.35;;
70071;SDS011;57434;42.794;23.302;2023-05-07T03:02:57;9.90;;;4.65;;
70071;SDS011;57434;42.794;23.302;2023-05-07T03:03:59;8.73;;;4.63;;
70071;SDS011;57434;42.794;23.302;2023-05-07T03:05:01;8.40;;;4.30;;
70071;SDS011;57434;42.794;23.302;2023-05-07T03:06:02;9.07;;;4.50;;
70071;SDS011;57434;42.794;23.302;2023-05-07T03:07:04;8.63;;;4.43;;
70071;SDS011;57434;42.794;23.302;2023-05-07T03:08:06;9.00;;;4.45;;
70071;SDS011;57434;42.794;23.302;2023-05-07T03:09:09;8.93;;;4.47;;
70071;SDS011;57434;42.794;23.302;2023-05-07T03:10:10;9.93;;;5.03;;
70071;SDS011;57434;42.794;23.302;2023-05-07T03:11:13;10.88;;;5.00;;
70071;SDS011;57434;42.794;23.302;2023-05-07T03:12:14;11.73;;;5.10;;
70071;SDS011;57434;42.794;23.302;2023-05-07T03:13:16;10.30;;;4.60;;
70071;SDS011;57434;42.794;23.302;2023-05-07T03:14:19;9.97;;;4.60;;
70071;SDS011;57434;42.794;23.302;2023-05-07T03:15:21;9.65;;;5.47;;
70071;SDS011;57434;42.794;23.302;2023-05-07T03:16:23;9.32;;;5.00;;
70071;SDS011;57434;42.794;23.302;2023-05-07T03:17:25;10.75;;;5.30;;
70071;SDS011;57434;42.794;23.302;2023-05-07T03:18:27;14.05;;;5.13;;
70071;SDS011;57434;42.794;23.302;2023-05-07T03:19:28;12.10;;;4.72;;
70071;SDS011;57434;42.794;23.302;2023-05-07T03:20:30;11.77;;;5.35;;
70071;SDS011;57434;42.794;23.302;2023-05-07T03:21:33;10.88;;;4.90;;
70071;SDS011;57434;42.794;23.302;2023-05-07T03:22:34;10.88;;;5.20;;
70071;SDS011;57434;42.794;23.302;2023-05-07T03:23:36;11.70;;;6.00;;
70071;SDS011;57434;42.794;23.302;2023-05-07T03:24:38;10.53;;;5.03;;
70071;SDS011;57434;42.794;23.302;2023-05-07T03:25:40;12.20;;;5.35;;
70071;SDS011;57434;42.794;23.302;2023-05-07T03:26:42;10.52;;;4.65;;
70071;SDS011;57434;42.794;23.302;2023-05-07T03:27:44;12.88;;;5.30;;
70071;SDS011;57434;42.794;23.302;2023-05-07T03:28:46;11.85;;;5.22;;
70071;SDS011;57434;42.794;23.302;2023-05-07T03:29:48;9.38;;;4.93;;
70071;SDS011;57434;42.794;23.302;2023-05-07T03:30:50;12.82;;;5.18;;
70071;SDS011;57434;42.794;23.302;2023-05-07T03:31:51;12.18;;;5.65;;
70071;SDS011;57434;42.794;23.302;2023-05-07T03:32:54;9.38;;;5.13;;
70071;SDS011;57434;42.794;23.302;2023-05-07T03:33:56;12.73;;;5.50;;
70071;SDS011;57434;42.794;23.302;2023-05-07T03:34:58;11.60;;;5.87;;
70071;SDS011;57434;42.794;23.302;2023-05-07T03:36:01;11.02;;;5.25;;
70071;SDS011;57434;42.794;23.302;2023-05-07T03:37:02;11.63;;;5.97;;
70071;SDS011;57434;42.794;23.302;2023-05-07T03:38:04;11.38;;;5.57;;
70071;SDS011;57434;42.794;23.302;2023-05-07T03:39:06;10.35;;;5.38;;
70071;SDS011;57434;42.794;23.302;2023-05-07T03:40:08;9.80;;;5.35;;
70071;SDS011;57434;42.794;23.302;2023-05-07T03:41:11;10.35;;;5.22;;
70071;SDS011;57434;42.794;23.302;2023-05-07T03:42:14;14.55;;;5.85;;
70071;SDS011;57434;42.794;23.302;2023-05-07T03:43:16;12.18;;;6.15;;
70071;SDS011;57434;42.794;23.302;2023-05-07T03:44:18;10.85;;;5.35;;
70071;SDS011;57434;42.794;23.302;2023-05-07T03:45:19;14.93;;;6.10;;
70071;SDS011;57434;42.794;23.302;2023-05-07T03:46:21;10.13;;;5.78;;
70071;SDS011;57434;42.794;23.302;2023-05-07T03:47:23;9.65;;;5.10;;
70071;SDS011;57434;42.794;23.302;2023-05-07T03:48:25;11.73;;;5.80;;
70071;SDS011;57434;42.794;23.302;2023-05-07T03:49:27;15.77;;;6.50;;
70071;SDS011;57434;42.794;23.302;2023-05-07T03:50:29;27.08;;;10.05;;
70071;SDS011;57434;42.794;23.302;2023-05-07T03:51:31;39.30;;;11.45;;
70071;SDS011;57434;42.794;23.302;2023-05-07T03:52:33;32.38;;;10.77;;
70071;SDS011;57434;42.794;23.302;2023-05-07T03:53:35;23.52;;;9.80;;
70071;SDS011;57434;42.794;23.302;2023-05-07T03:54:37;14.27;;;5.72;;
70071;SDS011;57434;42.794;23.302;2023-05-07T03:55:38;10.33;;;5.17;;
70071;SDS011;57434;42.794;23.302;2023-05-07T03:56:40;12.13;;;5.45;;
70071;SDS011;57434;42.794;23.302;2023-05-07T03:57:42;10.05;;;5.47;;
70071;SDS011;57434;42.794;23.302;2023-05-07T03:58:45;12.20;;;5.68;;
70071;SDS011;57434;42.794;23.302;2023-05-07T03:59:47;8.80;;;4.97;;
70071;SDS011;57434;42.794;23.302;2023-05-07T04:00:49;10.80;;;5.30;;
70071;SDS011;57434;42.794;23.302;2023-05-07T04:01:50;10.32;;;5.30;;
70071;SDS011;57434;42.794;23.302;2023-05-07T04:02:52;12.35;;;6.28;;
70071;SDS011;57434;42.794;23.302;2023-05-07T04:03:54;11.15;;;5.47;;
70071;SDS011;57434;42.794;23.302;2023-05-07T04:04:58;13.32;;;5.53;;
70071;SDS011;57434;42.794;23.302;2023-05-07T04:05:59;8.90;;;5.47;;
70071;SDS011;57434;42.794;23.302;2023-05-07T04:07:01;10.70;;;5.53;;
70071;SDS011;57434;42.794;23.302;2023-05-07T04:08:03;11.77;;;5.60;;
70071;SDS011;57434;42.794;23.302;2023-05-07T04:09:05;12.77;;;5.43;;
70071;SDS011;57434;42.794;23.302;2023-05-07T04:10:07;12.02;;;5.63;;
70071;SDS011;57434;42.794;23.302;2023-05-07T04:11:09;12.93;;;5.32;;
70071;SDS011;57434;42.794;23.302;2023-05-07T04:12:11;12.48;;;5.35;;
70071;SDS011;57434;42.794;23.302;2023-05-07T04:13:13;12.15;;;5.80;;
70071;SDS011;57434;42.794;23.302;2023-05-07T04:14:15;12.63;;;5.25;;
70071;SDS011;57434;42.794;23.302;2023-05-07T04:15:17;10.43;;;5.57;;
70071;SDS011;57434;42.794;23.302;2023-05-07T04:16:19;9.30;;;5.20;;
70071;SDS011;57434;42.794;23.302;2023-05-07T04:17:21;13.85;;;6.07;;
70071;SDS011;57434;42.794;23.302;2023-05-07T04:18:23;12.73;;;6.30;;
70071;SDS011;57434;42.794;23.302;2023-05-07T04:19:25;10.10;;;5.22;;
70071;SDS011;57434;42.794;23.302;2023-05-07T04:20:26;9.52;;;5.25;;
70071;SDS011;57434;42.794;23.302;2023-05-07T04:21:28;13.75;;;5.57;;
70071;SDS011;57434;42.794;23.302;2023-05-07T04:22:30;11.70;;;5.93;;
70071;SDS011;57434;42.794;23.302;2023-05-07T04:23:32;11.13;;;5.72;;
70071;SDS011;57434;42.794;23.302;2023-05-07T04:24:34;11.20;;;5.72;;
70071;SDS011;57434;42.794;23.302;2023-05-07T04:25:36;10.70;;;5.47;;
70071;SDS011;57434;42.794;23.302;2023-05-07T04:26:37;14.27;;;5.87;;
70071;SDS011;57434;42.794;23.302;2023-05-07T04:27:39;9.23;;;5.13;;
70071;SDS011;57434;42.794;23.302;2023-05-07T04:28:41;10.73;;;5.90;;
70071;SDS011;57434;42.794;23.302;2023-05-07T04:29:43;12.45;;;5.93;;
70071;SDS011;57434;42.794;23.302;2023-05-07T04:30:45;10.73;;;5.95;;
70071;SDS011;57434;42.794;23.302;2023-05-07T04:31:47;11.80;;;5.50;;
70071;SDS011;57434;42.794;23.302;2023-05-07T04:32:48;10.35;;;5.75;;
70071;SDS011;57434;42.794;23.302;2023-05-07T04:33:50;12.43;;;5.88;;
70071;SDS011;57434;42.794;23.302;2023-05-07T04:34:52;9.95;;;5.75;;
70071;SDS011;57434;42.794;23.302;2023-05-07T04:35:54;10.88;;;5.75;;
70071;SDS011;57434;42.794;23.302;2023-05-07T04:36:57;10.10;;;5.33;;
70071;SDS011;57434;42.794;23.302;2023-05-07T04:38:00;10.50;;;6.05;;
70071;SDS011;57434;42.794;23.302;2023-05-07T04:39:02;10.25;;;5.25;;
70071;SDS011;57434;42.794;23.302;2023-05-07T04:40:04;12.15;;;5.57;;
70071;SDS011;57434;42.794;23.302;2023-05-07T04:41:06;10.27;;;6.03;;
70071;SDS011;57434;42.794;23.302;2023-05-07T04:42:14;9.63;;;5.30;;
70071;SDS011;57434;42.794;23.302;2023-05-07T04:43:16;10.63;;;5.57;;
70071;SDS011;57434;42.794;23.302;2023-05-07T04:44:18;13.40;;;5.55;;
70071;SDS011;57434;42.794;23.302;2023-05-07T04:45:20;11.23;;;5.32;;
70071;SDS011;57434;42.794;23.302;2023-05-07T04:46:22;12.13;;;5.43;;
70071;SDS011;57434;42.794;23.302;2023-05-07T04:47:24;12.20;;;6.13;;
70071;SDS011;57434;42.794;23.302;2023-05-07T04:48:26;11.57;;;5.32;;
70071;SDS011;57434;42.794;23.302;2023-05-07T04:49:28;8.90;;;5.47;;
70071;SDS011;57434;42.794;23.302;2023-05-07T04:50:30;10.82;;;5.75;;
70071;SDS011;57434;42.794;23.302;2023-05-07T04:51:31;10.68;;;6.07;;
70071;SDS011;57434;42.794;23.302;2023-05-07T04:52:33;10.05;;;5.13;;
70071;SDS011;57434;42.794;23.302;2023-05-07T04:53:36;12.35;;;6.07;;
70071;SDS011;57434;42.794;23.302;2023-05-07T04:54:39;11.43;;;5.72;;
70071;SDS011;57434;42.794;23.302;2023-05-07T04:55:41;11.32;;;6.07;;
70071;SDS011;57434;42.794;23.302;2023-05-07T04:56:43;12.48;;;5.40;;
70071;SDS011;57434;42.794;23.302;2023-05-07T04:57:44;9.87;;;5.43;;
70071;SDS011;57434;42.794;23.302;2023-05-07T04:58:46;11.20;;;5.55;;
70071;SDS011;57434;42.794;23.302;2023-05-07T04:59:48;12.02;;;5.60;;
70071;SDS011;57434;42.794;23.302;2023-05-07T05:00:50;9.95;;;5.47;;
70071;SDS011;57434;42.794;23.302;2023-05-07T05:01:52;12.85;;;6.68;;
70071;SDS011;57434;42.794;23.302;2023-05-07T05:02:54;17.75;;;5.35;;
70071;SDS011;57434;42.794;23.302;2023-05-07T05:03:56;12.50;;;5.88;;
70071;SDS011;57434;42.794;23.302;2023-05-07T05:04:58;11.10;;;6.57;;
70071;SDS011;57434;42.794;23.302;2023-05-07T05:05:59;11.75;;;5.75;;
70071;SDS011;57434;42.794;23.302;2023-05-07T05:07:01;10.88;;;6.10;;
70071;SDS011;57434;42.794;23.302;2023-05-07T05:08:03;11.70;;;6.53;;
70071;SDS011;57434;42.794;23.302;2023-05-07T05:09:05;10.45;;;5.60;;
70071;SDS011;57434;42.794;23.302;2023-05-07T05:10:07;10.77;;;5.82;;
70071;SDS011;57434;42.794;23.302;2023-05-07T05:11:09;10.50;;;5.60;;
70071;SDS011;57434;42.794;23.302;2023-05-07T05:12:11;10.65;;;5.85;;
70071;SDS011;57434;42.794;23.302;2023-05-07T05:13:13;9.98;;;5.20;;
70071;SDS011;57434;42.794;23.302;2023-05-07T05:14:15;11.82;;;5.85;;
70071;SDS011;57434;42.794;23.302;2023-05-07T05:15:17;9.10;;;5.45;;
70071;SDS011;57434;42.794;23.302;2023-05-07T05:16:19;11.30;;;6.25;;
70071;SDS011;57434;42.794;23.302;2023-05-07T05:17:21;11.73;;;6.00;;
70071;SDS011;57434;42.794;23.302;2023-05-07T05:18:23;12.07;;;6.30;;
70071;SDS011;57434;42.794;23.302;2023-05-07T05:19:25;11.55;;;6.10;;
70071;SDS011;57434;42.794;23.302;2023-05-07T05:20:27;10.25;;;5.53;;
70071;SDS011;57434;42.794;23.302;2023-05-07T05:21:28;11.68;;;6.45;;
70071;SDS011;57434;42.794;23.302;2023-05-07T05:22:30;11.98;;;5.93;;
70071;SDS011;57434;42.794;23.302;2023-05-07T05:23:32;11.90;;;6.07;;
70071;SDS011;57434;42.794;23.302;2023-05-07T05:24:34;13.20;;;6.57;;
70071;SDS011;57434;42.794;23.302;2023-05-07T05:25:36;11.75;;;5.80;;
70071;SDS011;57434;42.794;23.302;2023-05-07T05:26:38;12.15;;;6.18;;
70071;SDS011;57434;42.794;23.302;2023-05-07T05:27:40;11.98;;;6.15;;
70071;SDS011;57434;42.794;23.302;2023-05-07T05:28:41;12.87;;;6.20;;
70071;SDS011;57434;42.794;23.302;2023-05-07T05:29:43;13.15;;;6.38;;
70071;SDS011;57434;42.794;23.302;2023-05-07T05:30:45;11.20;;;5.88;;
70071;SDS011;57434;42.794;23.302;2023-05-07T05:31:47;12.80;;;7.00;;
70071;SDS011;57434;42.794;23.302;2023-05-07T05:32:49;15.13;;;7.45;;
70071;SDS011;57434;42.794;23.302;2023-05-07T05:33:51;11.75;;;6.43;;
70071;SDS011;57434;42.794;23.302;2023-05-07T05:34:53;14.60;;;6.53;;
70071;SDS011;57434;42.794;23.302;2023-05-07T05:35:55;14.93;;;7.30;;
70071;SDS011;57434;42.794;23.302;2023-05-07T05:36:57;15.73;;;7.38;;
70071;SDS011;57434;42.794;23.302;2023-05-07T05:38:00;14.45;;;7.50;;
70071;SDS011;57434;42.794;23.302;2023-05-07T05:39:02;15.33;;;7.10;;
70071;SDS011;57434;42.794;23.302;2023-05-07T05:40:04;13.98;;;8.35;;
70071;SDS011;57434;42.794;23.302;2023-05-07T05:41:06;17.90;;;8.68;;
70071;SDS011;57434;42.794;23.302;2023-05-07T05:42:08;17.17;;;8.45;;
70071;SDS011;57434;42.794;23.302;2023-05-07T05:43:10;14.35;;;8.20;;
70071;SDS011;57434;42.794;23.302;2023-05-07T05:44:12;15.18;;;8.45;;
70071;SDS011;57434;42.794;23.302;2023-05-07T05:45:16;14.48;;;8.20;;
70071;SDS011;57434;42.794;23.302;2023-05-07T05:46:18;13.05;;;7.50;;
70071;SDS011;57434;42.794;23.302;2023-05-07T05:47:20;13.50;;;7.88;;
70071;SDS011;57434;42.794;23.302;2023-05-07T05:48:23;13.35;;;7.85;;
70071;SDS011;57434;42.794;23.302;2023-05-07T05:49:25;14.60;;;8.17;;
70071;SDS011;57434;42.794;23.302;2023-05-07T05:50:27;14.18;;;8.27;;
70071;SDS011;57434;42.794;23.302;2023-05-07T05:51:28;14.45;;;8.88;;
70071;SDS011;57434;42.794;23.302;2023-05-07T05:52:30;22.50;;;11.13;;
70071;SDS011;57434;42.794;23.302;2023-05-07T05:53:32;20.08;;;8.90;;
70071;SDS011;57434;42.794;23.302;2023-05-07T05:54:34;18.58;;;7.78;;
70071;SDS011;57434;42.794;23.302;2023-05-07T05:55:36;12.05;;;7.22;;
70071;SDS011;57434;42.794;23.302;2023-05-07T05:56:38;15.13;;;8.13;;
70071;SDS011;57434;42.794;23.302;2023-05-07T05:57:40;14.77;;;7.97;;
70071;SDS011;57434;42.794;23.302;2023-05-07T05:58:42;14.10;;;8.10;;
70071;SDS011;57434;42.794;23.302;2023-05-07T05:59:44;14.43;;;8.27;;
70071;SDS011;57434;42.794;23.302;2023-05-07T06:00:46;13.68;;;7.78;;
70071;SDS011;57434;42.794;23.302;2023-05-07T06:01:48;14.88;;;8.23;;
70071;SDS011;57434;42.794;23.302;2023-05-07T06:02:49;14.07;;;8.00;;
70071;SDS011;57434;42.794;23.302;2023-05-07T06:03:51;13.80;;;7.78;;